createdAt,value
2019-03-05T00:01:23.336Z,2
2019-03-05T00:06:28.590Z,1.5
2019-03-05T00:11:34.077Z,1.8
2019-03-05T00:16:39.621Z,1.6
2019-03-05T00:21:45.785Z,1.7
2019-03-05T00:26:50.954Z,1.9
2019-03-05T00:31:56.721Z,1.7
2019-03-05T00:37:02.297Z,1.7
2019-03-05T00:42:07.917Z,1.8
2019-03-05T00:47:13.334Z,1.6
2019-03-05T00:52:19.358Z,1.4
2019-03-05T00:57:24.469Z,1.6
2019-03-05T01:02:30.118Z,1.6
2019-03-05T01:07:34.517Z,1.5
2019-03-05T01:12:40.201Z,1.5
2019-03-05T01:17:45.700Z,1.6
2019-03-05T01:22:51.412Z,1.4
2019-03-05T01:27:55.449Z,1.6
2019-03-05T01:33:00.786Z,1.4
2019-03-05T01:38:06.749Z,1.5
2019-03-05T01:43:12.123Z,1.4
2019-03-05T01:48:17.785Z,1.5
2019-03-05T01:53:23.646Z,1.6
2019-03-05T01:58:29.028Z,1.5
2019-03-05T02:03:34.340Z,1.8
2019-03-05T02:08:39.419Z,1.4
2019-03-05T02:13:45.841Z,1.4
2019-03-05T02:18:51.067Z,1.4
2019-03-05T02:23:56.639Z,1.3
2019-03-05T02:29:02.200Z,1.5
2019-03-05T02:34:07.480Z,1.4
2019-03-05T02:39:13.055Z,1.5
2019-03-05T02:44:18.236Z,1.3
2019-03-05T02:49:23.804Z,1.3
2019-03-05T02:54:29.589Z,1.4
2019-03-05T02:59:35.282Z,1.3
2019-03-05T03:04:40.858Z,1.3
2019-03-05T03:09:46.363Z,1.3
2019-03-05T03:14:52.089Z,1.4
2019-03-05T03:19:57.560Z,1.2
2019-03-05T03:25:03.342Z,1.2
2019-03-05T03:30:08.902Z,1.2
2019-03-05T03:35:14.340Z,1.2
2019-03-05T03:40:19.013Z,1.3
2019-03-05T03:45:25.073Z,1.1
2019-03-05T03:50:30.165Z,1.3
2019-03-05T03:55:36.435Z,1.1
2019-03-05T04:00:42.176Z,1.1
2019-03-05T04:05:47.508Z,1.1
2019-03-05T04:10:52.793Z,1.1
2019-03-05T04:15:57.462Z,1.2
2019-03-05T04:21:02.960Z,1.2
2019-03-05T04:26:08.263Z,1.2
2019-03-05T04:31:13.233Z,1.2
2019-03-05T04:36:18.907Z,1
2019-03-05T04:41:23.034Z,1.1
2019-03-05T04:46:28.285Z,1.1
2019-03-05T04:51:33.343Z,1.2
2019-03-05T04:56:39.431Z,1.1
2019-03-05T05:01:43.567Z,1
2019-03-05T05:06:48.346Z,1.1
2019-03-05T05:11:53.984Z,1
2019-03-05T05:16:59.330Z,1.1
2019-03-05T05:22:04.963Z,1
2019-03-05T05:27:10.752Z,1
2019-03-05T05:32:15.686Z,0.9
2019-03-05T05:37:20.796Z,1.1
2019-03-05T05:42:26.568Z,1
2019-03-05T05:47:32.440Z,1.2
2019-03-05T05:52:37.452Z,1.2
2019-03-05T05:57:42.850Z,1.7
2019-03-05T06:02:48.656Z,1.7
2019-03-05T06:07:54.510Z,1.2
2019-03-05T06:13:00.357Z,1.3
2019-03-05T06:18:06.443Z,1.3
2019-03-05T06:23:11.612Z,1.2
2019-03-05T06:28:16.771Z,1.2
2019-03-05T06:33:21.992Z,1.3
2019-03-05T06:38:27.906Z,1.1
2019-03-05T06:43:33.567Z,1.2
2019-03-05T06:48:39.558Z,1.8
2019-03-05T06:53:45.504Z,1.6
2019-03-05T06:58:50.655Z,1.7
2019-03-05T07:03:55.928Z,1.8
2019-03-05T07:09:02.212Z,1.6
2019-03-05T07:14:07.723Z,1.8
2019-03-05T07:19:12.931Z,1.8
2019-03-05T07:24:17.916Z,1.9
2019-03-05T07:29:23.360Z,1.8
2019-03-05T07:34:27.294Z,1.7
2019-03-05T07:39:32.681Z,1.9
2019-03-05T07:44:37.759Z,1.7
2019-03-05T07:49:45.116Z,1.7
2019-03-05T07:54:48.067Z,1.5
2019-03-05T07:59:57.060Z,1.7
2019-03-05T08:05:02.737Z,1.7
2019-03-05T08:10:08.405Z,1.7
2019-03-05T08:15:14.181Z,1.7
2019-03-05T08:20:19.542Z,1.5
2019-03-05T08:25:23.054Z,2
2019-03-05T08:30:28.943Z,1.5
2019-03-05T08:35:34.910Z,1.8
2019-03-05T08:40:39.159Z,1.5
2019-03-05T08:45:44.952Z,1.3
2019-03-05T08:50:50.624Z,1.5
2019-03-05T08:55:55.849Z,1.5
2019-03-05T09:01:01.544Z,1.5
2019-03-05T09:06:07.077Z,1.3
2019-03-05T09:11:12.127Z,1.5
2019-03-05T09:16:18.099Z,1.3
2019-03-05T09:21:24.077Z,1.2
2019-03-05T09:26:29.565Z,1.1
2019-03-05T09:31:35.113Z,1.1
2019-03-05T09:36:51.978Z,1
2019-03-05T09:41:48.129Z,1.1
2019-03-05T09:46:53.358Z,1.1
2019-03-05T09:51:59.307Z,1
2019-03-05T09:57:11.929Z,1.1
2019-03-05T10:02:07.278Z,0.9
2019-03-05T10:07:19.970Z,1.1
2019-03-05T10:12:15.129Z,1
2019-03-05T10:17:20.654Z,0.9
2019-03-05T10:22:26.767Z,1.1
2019-03-05T10:27:32.564Z,1.1
2019-03-05T10:32:37.046Z,0.9
2019-03-05T10:37:42.644Z,0.9
2019-03-05T10:42:48.822Z,0.9
2019-03-05T10:47:53.817Z,1.1
2019-03-05T10:52:59.027Z,0.9
2019-03-05T10:58:04.382Z,0.9
2019-03-05T11:03:10.398Z,0.9
2019-03-05T11:08:14.581Z,0.8
2019-03-05T11:13:20.267Z,0.8
2019-03-05T11:18:30.603Z,0.8
2019-03-05T11:23:25.766Z,0.8
2019-03-05T11:28:31.062Z,0.9
2019-03-05T11:33:34.986Z,0.8
2019-03-05T11:38:40.768Z,0.9
2019-03-05T11:43:46.530Z,0.7
2019-03-05T11:48:50.655Z,1.1
2019-03-05T11:53:56.133Z,0.6
2019-03-05T11:59:01.101Z,0.7
2019-03-05T12:04:06.376Z,0.7
2019-03-05T12:09:11.208Z,0.6
2019-03-05T12:14:16.554Z,0.7
2019-03-05T12:19:20.996Z,0.6
2019-03-05T12:24:26.662Z,0.6
2019-03-05T12:29:32.567Z,0.6
2019-03-05T12:34:37.629Z,0.6
2019-03-05T12:39:43.265Z,0.6
2019-03-05T12:44:47.280Z,0.6
2019-03-05T12:49:52.908Z,0.5
2019-03-05T12:54:58.535Z,0.5
2019-03-05T13:00:04.301Z,0.5
2019-03-05T13:05:10.273Z,0.6
2019-03-05T13:10:15.379Z,0.6
2019-03-05T13:15:20.752Z,0.5
2019-03-05T13:20:27.757Z,0.4
2019-03-05T13:25:34.122Z,0.5
2019-03-05T13:30:41.739Z,0.5
2019-03-05T13:35:46.786Z,0.5
2019-03-05T13:40:51.843Z,0.6
2019-03-05T13:45:58.405Z,0.7
2019-03-05T13:51:04.577Z,0.6
2019-03-05T13:56:12.858Z,0.5
2019-03-05T14:01:18.366Z,0.5
2019-03-05T14:06:23.103Z,0.4
2019-03-05T14:11:27.466Z,0.5
2019-03-05T14:16:32.858Z,0.5
2019-03-05T14:21:37.975Z,0.5
2019-03-05T14:26:43.972Z,0.5
2019-03-05T14:31:49.623Z,0.6
2019-03-05T14:36:55.447Z,1.1
2019-03-05T14:42:01.508Z,2.9
2019-03-05T14:47:08.053Z,3.5
2019-03-05T14:52:13.143Z,2.7
2019-03-05T14:57:21.524Z,2.4
2019-03-05T15:02:27.029Z,2
2019-03-05T15:07:33.137Z,2
2019-03-05T15:12:38.346Z,2
2019-03-05T15:17:44.042Z,2.4
2019-03-05T15:22:49.723Z,2.2
2019-03-05T15:27:55.675Z,2.1
2019-03-05T15:33:00.965Z,2.1
2019-03-05T15:38:06.346Z,1.6
2019-03-05T15:43:11.780Z,2.2
2019-03-05T15:48:12.266Z,2.1
2019-03-05T15:53:18.486Z,2.1
2019-03-05T15:58:24.792Z,2.1
2019-03-05T16:03:30.416Z,2
2019-03-05T16:08:35.795Z,2
2019-03-05T16:13:41.694Z,2
2019-03-05T16:18:47.433Z,1.9
2019-03-05T16:23:52.889Z,2
2019-03-05T16:28:58.752Z,2.2
2019-03-05T16:34:05.157Z,2
2019-03-05T16:39:06.425Z,2
2019-03-05T16:44:14.623Z,2
2019-03-05T16:49:19.287Z,1.7
2019-03-05T16:54:25.264Z,1.8
2019-03-05T16:59:31.240Z,1.8
2019-03-05T17:04:36.849Z,1.5
2019-03-05T17:09:42.879Z,1.7
2019-03-05T17:14:46.477Z,1.6
2019-03-05T17:19:51.767Z,1.6
2019-03-05T17:24:57.618Z,1.7
2019-03-05T17:30:06.948Z,1.6
2019-03-05T17:35:11.665Z,1.5
2019-03-05T17:40:17.870Z,1.4
2019-03-05T17:45:23.186Z,4.8
2019-03-05T17:50:29.593Z,4.5
2019-03-05T17:55:35.384Z,21
2019-03-05T18:00:41.419Z,15.7
2019-03-05T18:05:47.095Z,21
2019-03-05T18:10:52.352Z,14.4
2019-03-05T18:15:57.927Z,14.2
2019-03-05T18:21:04.451Z,12.8
2019-03-05T18:26:09.778Z,13.9
2019-03-05T18:31:16.047Z,13
2019-03-05T18:36:21.948Z,12.2
2019-03-05T18:41:28.245Z,11.6
2019-03-05T18:46:33.768Z,11.4
2019-03-05T18:51:39.045Z,11.1
2019-03-05T18:56:44.124Z,10.8
2019-03-05T19:01:49.563Z,9.5
2019-03-05T19:06:57.160Z,12
2019-03-05T19:12:03.198Z,11.2
2019-03-05T19:17:08.923Z,10.3
2019-03-05T19:22:14.184Z,9.8
2019-03-05T19:27:26.928Z,9.1
2019-03-05T19:32:23.151Z,8.3
2019-03-05T19:37:28.791Z,7.6
2019-03-05T19:42:35.109Z,7.7
2019-03-05T19:47:41.043Z,6.5
2019-03-05T19:52:46.567Z,5.9
2019-03-05T19:57:47.211Z,5
2019-03-05T20:02:51.333Z,4.7
2019-03-05T20:07:57.423Z,4.8
2019-03-05T20:13:03.587Z,4
2019-03-05T20:18:09.985Z,3.8
2019-03-05T20:23:15.380Z,3
2019-03-05T20:28:20.805Z,2.9
2019-03-05T20:33:26.045Z,3
2019-03-05T20:38:34.213Z,2.7
2019-03-05T20:43:39.857Z,2.6
2019-03-05T20:48:45.464Z,2.4
2019-03-05T20:53:51.052Z,2.1
2019-03-05T20:58:57.062Z,2.1
2019-03-05T21:04:02.699Z,2.2
2019-03-05T21:09:07.832Z,2.8
2019-03-05T21:14:13.752Z,2.5
2019-03-05T21:19:19.682Z,2.8
2019-03-05T21:24:25.406Z,2.8
2019-03-05T21:29:30.932Z,3
2019-03-05T21:34:36.676Z,2.6
2019-03-05T21:39:42.244Z,2.6
2019-03-05T21:44:48.082Z,2.6
2019-03-05T21:49:53.779Z,2.2
2019-03-05T21:55:00.050Z,2.5
2019-03-05T22:00:06.003Z,2.4
2019-03-05T22:05:11.190Z,2.2
2019-03-05T22:10:16.215Z,2.4
2019-03-05T22:15:21.768Z,2.3
2019-03-05T22:20:26.001Z,2.3
2019-03-05T22:25:32.154Z,2.2
2019-03-05T22:30:36.184Z,2
2019-03-05T22:35:42.131Z,1.8
2019-03-05T22:40:48.405Z,1.8
2019-03-05T22:45:55.276Z,1.9
2019-03-05T22:51:00.566Z,1.9
2019-03-05T22:56:06.748Z,1.9
2019-03-05T23:01:11.814Z,1.7
2019-03-05T23:06:18.139Z,2
2019-03-05T23:11:23.547Z,1.8
2019-03-05T23:16:29.831Z,2
2019-03-05T23:21:35.406Z,1.6
2019-03-05T23:26:43.218Z,1.9
2019-03-05T23:31:48.307Z,1.6
2019-03-05T23:36:53.511Z,1.5
2019-03-05T23:41:59.399Z,1.5
2019-03-05T23:47:04.166Z,1.6
2019-03-05T23:52:10.134Z,1.6
2019-03-05T23:57:15.339Z,1.5
